Terminal Aerodrome Forecast
Issued by NWS

Home | Current Version | Previous Version | Text Only | Print | Product List | Glossary On
Versions: 1 2 3 4 5 6 7 8 9 10 11 12 13 14
859
FTUS45 KABQ 251922 AAA
TAFLVS
TAF AMD
KLVS 251922Z 2519/2618 16010KT P6SM VCTS BKN070CB OVC120
      TEMPO 2520/2524 VRB15G25KT 6SM TSRA BKN060CB
     FM260100 12008KT P6SM VCSH BKN060 OVC100
      TEMPO 2601/2605 VRB15G25KT -SHRA OVC040
     FM260600 09007KT P6SM SCT025 BKN050
     FM261500 13007KT P6SM FEW060 SCT130=

USA.gov is the U.S. government's official web portal to all federal, state and local government web resources and services.